Time;durP1;ratioP1;P1;durP2;ratioP2;P2;SDS_P1;SDS_P2;PMS_P1;PMS_P2;Temp;Humidity;BMP_temperature;BMP_pressure;BME280_temperature;BME280_humidity;BME280_pressure;Samples;Min_cycle;Max_cycle;Signal;HPM_P1;HPM_P2
2023/10/16 00:01:03;;;;;;;1.97;1.60;;;4.10;91.60;;;;;;5043411;28;20475;-68
2023/10/16 00:03:31;;;;;;;4.20;2.47;;;4.10;92.10;;;;;;5045151;28;20605;-67
2023/10/16 00:05:58;;;;;;;2.97;1.50;;;4.20;91.90;;;;;;5059644;28;21076;-69
2023/10/16 00:08:26;;;;;;;3.80;2.00;;;4.10;92.30;;;;;;5064124;28;21342;-70
2023/10/16 00:10:56;;;;;;;6.30;1.87;;;4.20;92.70;;;;;;5065638;28;21244;-66
2023/10/16 00:13:26;;;;;;;2.30;2.10;;;4.20;93.00;;;;;;5064129;28;20527;-69
2023/10/16 00:15:55;;;;;;;4.03;2.20;;;4.20;93.00;;;;;;5063875;28;20674;-68
2023/10/16 00:18:23;;;;;;;5.60;1.83;;;3.60;92.30;;;;;;5065545;28;20720;-68
2023/10/16 00:20:50;;;;;;;2.10;1.30;;;3.50;92.70;;;;;;5066589;28;20467;-69
2023/10/16 00:23:17;;;;;;;2.37;1.80;;;3.60;93.40;;;;;;5061019;28;20580;-69
2023/10/16 00:25:46;;;;;;;4.10;1.37;;;3.70;92.80;;;;;;5066336;28;20498;-66
2023/10/16 00:28:18;;;;;;;2.10;1.57;;;3.70;92.90;;;;;;5067210;28;21130;-66
2023/10/16 00:30:46;;;;;;;2.83;1.80;;;3.70;92.80;;;;;;5061528;28;20482;-69
2023/10/16 00:33:13;;;;;;;8.03;2.70;;;3.80;92.70;;;;;;5052023;28;20509;-65
2023/10/16 00:35:40;;;;;;;1.87;1.63;;;3.90;92.90;;;;;;5025292;28;21028;-66
2023/10/16 00:38:12;;;;;;;2.23;1.50;;;3.90;92.40;;;;;;5058804;28;20996;-69
2023/10/16 00:40:40;;;;;;;2.90;2.20;;;4.00;92.30;;;;;;5044887;28;20870;-67
2023/10/16 00:43:11;;;;;;;1.90;1.10;;;4.00;92.30;;;;;;5048992;28;20480;-69
2023/10/16 00:45:48;;;;;;;5.00;2.93;;;4.00;92.40;;;;;;5049801;28;20485;-69
2023/10/16 00:48:17;;;;;;;3.07;1.73;;;4.10;92.50;;;;;;5047784;28;20488;-68
2023/10/16 00:50:45;;;;;;;2.70;2.07;;;4.10;92.30;;;;;;5056722;28;20570;-66
2023/10/16 00:53:14;;;;;;;3.83;1.50;;;4.00;91.30;;;;;;5047917;28;20480;-68
2023/10/16 00:55:41;;;;;;;2.87;1.77;;;4.00;91.60;;;;;;5048054;28;20561;-69
2023/10/16 00:58:09;;;;;;;1.90;1.50;;;4.00;91.70;;;;;;5049549;28;20489;-70
2023/10/16 01:00:38;;;;;;;4.30;2.07;;;4.00;91.80;;;;;;5046381;28;20961;-69
2023/10/16 01:03:05;;;;;;;3.83;2.10;;;3.90;91.60;;;;;;5049343;28;20682;-67
2023/10/16 01:05:39;;;;;;;1.80;1.27;;;3.70;91.60;;;;;;5050352;28;21381;-69
2023/10/16 01:08:07;;;;;;;8.63;2.40;;;3.70;91.70;;;;;;5051381;28;21169;-68
2023/10/16 01:10:35;;;;;;;2.57;1.30;;;3.70;91.80;;;;;;5051443;28;20484;-66
2023/10/16 01:13:08;;;;;;;6.17;3.07;;;3.70;91.60;;;;;;5052070;28;21999;-68
2023/10/16 01:15:43;;;;;;;1.80;1.30;;;3.30;91.90;;;;;;5048116;28;20473;-68
2023/10/16 01:18:11;;;;;;;4.80;1.20;;;3.10;92.70;;;;;;5018211;28;20658;-63
2023/10/16 01:20:38;;;;;;;7.63;1.73;;;3.10;92.70;;;;;;5049272;28;20600;-60
2023/10/16 01:23:07;;;;;;;5.33;2.10;;;3.30;92.00;;;;;;5048139;28;20480;-60
2023/10/16 01:25:33;;;;;;;1.63;1.27;;;3.30;92.30;;;;;;5047773;28;20483;-62
2023/10/16 01:28:03;;;;;;;1.93;1.47;;;3.40;92.10;;;;;;5049383;28;20661;-70
2023/10/16 01:30:30;;;;;;;3.47;2.17;;;3.50;92.40;;;;;;5036780;28;20533;-67
2023/10/16 01:32:57;;;;;;;1.90;1.63;;;3.50;92.00;;;;;;5061919;28;20590;-69
2023/10/16 01:35:24;;;;;;;2.40;1.63;;;3.50;91.90;;;;;;5045675;28;20470;-69
2023/10/16 01:37:52;;;;;;;1.80;1.20;;;3.50;92.00;;;;;;5045969;28;20513;-68
2023/10/16 01:40:25;;;;;;;4.63;2.10;;;3.50;92.30;;;;;;5047053;28;20475;-68
2023/10/16 01:42:53;;;;;;;2.77;2.10;;;3.60;92.50;;;;;;5040075;28;20925;-70
2023/10/16 01:45:21;;;;;;;2.70;1.90;;;3.50;92.30;;;;;;5048703;28;20484;-66
2023/10/16 01:47:48;;;;;;;3.07;1.87;;;3.60;92.50;;;;;;5054101;28;20475;-69
2023/10/16 01:50:21;;;;;;;2.23;1.23;;;3.60;92.30;;;;;;5058744;28;20556;-66
2023/10/16 01:52:48;;;;;;;2.97;2.13;;;3.60;91.90;;;;;;5027655;28;21293;-70
2023/10/16 01:55:17;;;;;;;2.50;2.30;;;3.60;91.80;;;;;;5059161;28;21158;-67
2023/10/16 01:57:47;;;;;;;3.60;2.50;;;3.40;91.40;;;;;;5058419;28;20741;-66
2023/10/16 02:00:24;;;;;;;2.40;1.70;;;2.90;91.80;;;;;;5060204;28;20505;-68
2023/10/16 02:02:50;;;;;;;2.40;1.23;;;2.70;92.30;;;;;;5057845;28;20475;-69
2023/10/16 02:05:18;;;;;;;5.63;2.30;;;2.70;92.60;;;;;;5061846;28;20471;-68
2023/10/16 02:07:45;;;;;;;8.80;1.80;;;2.80;92.30;;;;;;5057653;28;21028;-71
2023/10/16 02:10:13;;;;;;;7.00;2.70;;;2.90;92.10;;;;;;5059318;28;20498;-69
2023/10/16 02:12:40;;;;;;;2.40;1.43;;;3.00;92.50;;;;;;5059486;28;20573;-69
2023/10/16 02:15:09;;;;;;;3.30;2.00;;;3.10;92.20;;;;;;5057451;28;20540;-68
2023/10/16 02:17:38;;;;;;;3.03;1.93;;;3.10;92.00;;;;;;5064061;28;20480;-69
2023/10/16 02:20:11;;;;;;;2.03;1.70;;;3.20;92.30;;;;;;5057608;28;21076;-69
2023/10/16 02:22:41;;;;;;;3.00;1.63;;;3.20;92.50;;;;;;5062565;28;20490;-69
2023/10/16 02:25:11;;;;;;;2.90;2.43;;;3.30;92.30;;;;;;5058273;28;20485;-70
2023/10/16 02:27:38;;;;;;;1.60;1.00;;;3.30;92.40;;;;;;5029511;28;20525;-69
2023/10/16 02:30:28;;;;;;;2.33;1.43;;;3.40;92.30;;;;;;5047014;28;20577;-70
2023/10/16 02:33:11;;;;;;;1.60;1.10;;;3.40;91.80;;;;;;5054532;28;20975;-70
2023/10/16 02:35:38;;;;;;;3.33;2.63;;;3.40;91.40;;;;;;5065955;28;20544;-68
2023/10/16 02:38:05;;;;;;;2.60;1.73;;;3.30;91.20;;;;;;5056526;28;20532;-61
2023/10/16 02:40:34;;;;;;;2.60;2.10;;;3.30;91.00;;;;;;5057852;28;20553;-61
2023/10/16 02:43:04;;;;;;;3.60;1.90;;;3.30;91.30;;;;;;5057946;28;20498;-61
2023/10/16 02:45:33;;;;;;;5.30;2.10;;;3.30;91.50;;;;;;5057688;28;20483;-63
2023/10/16 02:48:02;;;;;;;2.33;1.23;;;3.30;91.80;;;;;;5058302;28;21225;-61
2023/10/16 02:50:29;;;;;;;2.87;1.70;;;3.30;91.90;;;;;;5057521;28;20483;-61
2023/10/16 02:52:56;;;;;;;2.03;1.67;;;3.30;91.90;;;;;;5058696;28;20513;-60
2023/10/16 02:55:23;;;;;;;2.77;2.40;;;3.30;91.80;;;;;;5053600;28;20807;-60
2023/10/16 02:57:50;;;;;;;4.83;1.63;;;3.30;91.60;;;;;;5057798;28;20854;-61
2023/10/16 03:00:24;;;;;;;1.93;1.30;;;3.30;91.50;;;;;;5058053;28;20972;-62
2023/10/16 03:02:51;;;;;;;4.23;1.20;;;3.30;91.40;;;;;;5046556;28;20482;-61
2023/10/16 03:05:25;;;;;;;5.67;2.37;;;3.00;90.80;;;;;;5055837;28;20861;-62
2023/10/16 03:07:52;;;;;;;1.73;1.40;;;2.70;91.00;;;;;;5056115;28;21359;-62
2023/10/16 03:10:21;;;;;;;1.60;1.00;;;2.60;91.30;;;;;;5057850;28;20490;-61
2023/10/16 03:12:49;;;;;;;1.70;1.20;;;2.60;91.60;;;;;;5046904;28;20462;-63
2023/10/16 03:15:20;;;;;;;1.70;1.43;;;2.70;91.70;;;;;;5048323;28;20565;-63
2023/10/16 03:17:50;;;;;;;2.23;1.57;;;2.80;91.50;;;;;;5066912;28;20479;-63
2023/10/16 03:20:20;;;;;;;3.30;1.70;;;2.80;91.30;;;;;;5055930;28;20849;-62
2023/10/16 03:22:50;;;;;;;2.77;1.60;;;2.90;91.30;;;;;;5049197;28;20535;-61
2023/10/16 03:25:50;;;;;;;1.97;1.50;;;2.90;91.30;;;;;;5045364;28;20494;-63
2023/10/16 03:28:13;;;;;;;4.13;1.77;;;2.90;90.80;;;;;;5061491;28;20490;-62
2023/10/16 03:30:42;;;;;;;4.93;2.37;;;2.60;90.80;;;;;;5056291;28;20569;-61
2023/10/16 03:33:13;;;;;;;3.40;1.20;;;2.30;91.60;;;;;;5057029;28;20490;-61
2023/10/16 03:35:43;;;;;;;2.03;1.40;;;2.30;91.50;;;;;;5058215;28;20509;-62
2023/10/16 03:38:12;;;;;;;6.13;1.40;;;2.40;91.80;;;;;;5056917;28;20644;-61
2023/10/16 03:40:41;;;;;;;2.50;1.50;;;2.40;91.80;;;;;;5055700;28;20475;-61
2023/10/16 03:43:08;;;;;;;1.90;1.43;;;2.50;91.90;;;;;;5058853;28;20721;-61
2023/10/16 03:45:39;;;;;;;2.57;2.03;;;2.60;92.20;;;;;;5056554;28;20493;-63
2023/10/16 03:48:09;;;;;;;2.60;1.30;;;2.60;91.90;;;;;;5027051;28;20678;-62
2023/10/16 03:50:38;;;;;;;1.87;1.20;;;2.50;91.10;;;;;;5029870;28;20825;-61
2023/10/16 03:53:07;;;;;;;2.00;1.10;;;2.50;91.20;;;;;;5029810;28;20475;-61
2023/10/16 03:55:43;;;;;;;2.67;1.80;;;2.50;91.20;;;;;;5030084;28;20466;-62
2023/10/16 03:58:12;;;;;;;2.53;1.63;;;2.40;90.90;;;;;;5046174;28;20491;-71
2023/10/16 04:00:50;;;;;;;3.00;2.30;;;2.40;90.90;;;;;;5052799;28;20529;-71
2023/10/16 04:03:18;;;;;;;2.53;1.80;;;2.40;90.90;;;;;;5057508;28;20554;-68
2023/10/16 04:05:46;;;;;;;2.73;1.70;;;2.40;91.00;;;;;;5055449;28;20474;-70
2023/10/16 04:08:14;;;;;;;2.63;1.40;;;2.40;91.00;;;;;;5067556;28;20479;-66
2023/10/16 04:10:46;;;;;;;1.97;1.67;;;2.40;91.30;;;;;;5060947;28;20488;-69
2023/10/16 04:13:14;;;;;;;1.87;1.10;;;2.50;91.40;;;;;;5060601;28;20518;-69
2023/10/16 04:18:32;;;;;;;2.40;1.73;;;2.50;91.50;;;;;;5060557;28;20620;-67
2023/10/16 04:23:53;;;;;;;3.07;1.20;;;2.50;91.00;;;;;;5067256;28;20995;-69
2023/10/16 04:26:46;;;;;;;3.10;1.73;;;2.50;91.10;;;;;;5050267;28;21047;-71
2023/10/16 04:29:28;;;;;;;2.27;1.40;;;2.50;91.50;;;;;;5058539;28;20498;-68
2023/10/16 04:31:57;;;;;;;1.80;1.20;;;2.60;91.70;;;;;;5054258;28;20502;-69
2023/10/16 04:34:25;;;;;;;1.83;1.50;;;2.60;91.60;;;;;;5037725;28;20583;-69
2023/10/16 04:36:53;;;;;;;1.80;1.50;;;2.70;92.10;;;;;;5059600;28;20478;-71
2023/10/16 04:45:24;;;;;;;2.97;1.80;;;2.70;91.90;;;;;;5049841;28;20486;-69
2023/10/16 04:47:56;;;;;;;5.23;1.57;;;2.70;91.70;;;;;;5058651;28;20486;-61
2023/10/16 04:50:29;;;;;;;1.80;1.30;;;2.60;91.00;;;;;;5036637;28;20584;-61
2023/10/16 04:53:08;;;;;;;1.60;1.10;;;2.50;91.20;;;;;;5070685;28;20625;-63
2023/10/16 04:55:54;;;;;;;3.90;1.90;;;2.50;90.80;;;;;;5056865;28;20473;-61
2023/10/16 04:58:38;;;;;;;2.17;1.63;;;2.50;90.60;;;;;;5059988;28;20494;-61
2023/10/16 05:01:33;;;;;;;6.13;4.17;;;2.40;90.60;;;;;;5062260;28;21005;-61
2023/10/16 05:04:34;;;;;;;3.50;1.80;;;2.40;90.90;;;;;;5059904;28;20463;-61
2023/10/16 05:07:06;;;;;;;3.47;2.00;;;2.40;90.90;;;;;;5049292;28;21037;-70
2023/10/16 05:18:11;;;;;;;1.70;1.00;;;2.50;90.90;;;;;;5054960;28;20474;-69
2023/10/16 05:21:15;;;;;;;1.87;1.10;;;2.50;90.70;;;;;;5018337;28;20924;-68
2023/10/16 06:15:47;;;;;;;2.00;1.07;;;2.80;92.00;;;;;;5056575;28;20502;-61
2023/10/16 06:18:13;;;;;;;3.30;1.87;;;2.90;92.20;;;;;;5057820;28;20484;-66
2023/10/16 06:20:43;;;;;;;3.03;1.50;;;2.90;92.30;;;;;;5059213;28;20483;-67
2023/10/16 06:23:11;;;;;;;4.37;2.70;;;3.00;92.40;;;;;;5054318;28;20481;-71
2023/10/16 06:25:38;;;;;;;1.73;1.40;;;3.00;92.40;;;;;;5058532;28;20491;-69
2023/10/16 06:28:11;;;;;;;2.17;1.67;;;3.10;92.30;;;;;;5056164;28;20574;-70
2023/10/16 06:30:39;;;;;;;3.33;1.80;;;3.10;92.30;;;;;;5057492;28;21003;-68
2023/10/16 06:33:06;;;;;;;1.73;1.10;;;3.20;92.30;;;;;;5057695;28;20585;-70
2023/10/16 06:35:33;;;;;;;1.80;1.57;;;3.20;92.30;;;;;;5058648;28;20570;-70
2023/10/16 06:38:03;;;;;;;3.30;1.80;;;3.30;92.10;;;;;;5057058;28;21083;-61
2023/10/16 06:40:32;;;;;;;1.90;1.43;;;3.40;92.00;;;;;;5056964;28;20482;-62
2023/10/16 06:43:10;;;;;;;1.80;1.27;;;3.40;92.10;;;;;;5058293;28;20482;-61
2023/10/16 06:45:42;;;;;;;2.23;1.47;;;3.50;92.60;;;;;;5053862;28;20471;-61
2023/10/16 06:48:14;;;;;;;3.37;1.50;;;3.60;92.20;;;;;;5057872;28;20473;-60
2023/10/16 06:50:45;;;;;;;2.83;1.70;;;3.80;91.80;;;;;;5057206;28;20475;-60
2023/10/16 06:53:13;;;;;;;2.43;1.50;;;3.70;92.00;;;;;;5061949;28;20561;-62
2023/10/16 06:55:40;;;;;;;3.03;1.60;;;3.90;91.90;;;;;;5059537;28;20485;-60
2023/10/16 06:58:07;;;;;;;2.30;1.90;;;4.00;92.00;;;;;;5058020;28;20573;-62
2023/10/16 07:00:34;;;;;;;3.00;2.23;;;4.30;92.80;;;;;;5058199;28;20479;-61
2023/10/16 07:03:09;;;;;;;4.63;2.40;;;5.30;94.80;;;;;;5058216;28;21158;-61
2023/10/16 07:05:43;;;;;;;4.70;3.00;;;6.50;94.50;;;;;;5051699;28;20547;-63
2023/10/16 07:08:11;;;;;;;5.50;2.30;;;7.90;92.70;;;;;;5046809;28;20469;-61
2023/10/16 07:10:42;;;;;;;5.70;3.37;;;9.10;90.40;;;;;;5055905;28;20927;-63
2023/10/16 07:13:09;;;;;;;3.00;1.97;;;10.00;86.40;;;;;;5058640;28;20490;-61
2023/10/16 07:15:36;;;;;;;2.80;2.17;;;10.60;83.90;;;;;;5049990;28;20692;-61
2023/10/16 07:18:05;;;;;;;3.30;2.47;;;11.20;82.90;;;;;;5065046;28;20843;-61
2023/10/16 07:20:35;;;;;;;2.93;2.37;;;11.70;80.90;;;;;;5058525;28;20885;-61
2023/10/16 07:23:09;;;;;;;7.03;3.43;;;11.80;79.40;;;;;;5057859;28;20568;-61
2023/10/16 07:25:47;;;;;;;4.53;2.27;;;12.10;79.20;;;;;;5057912;28;20536;-61
2023/10/16 07:28:18;;;;;;;2.73;2.17;;;12.60;78.50;;;;;;5053819;28;20474;-65
2023/10/16 07:30:45;;;;;;;4.60;2.27;;;12.90;79.30;;;;;;5047609;28;20486;-65
2023/10/16 07:33:14;;;;;;;5.60;2.10;;;13.20;77.40;;;;;;5053488;28;20554;-66
2023/10/16 07:35:42;;;;;;;3.30;2.73;;;13.20;76.00;;;;;;5057263;28;21085;-64
2023/10/16 07:38:09;;;;;;;5.20;2.50;;;13.20;76.00;;;;;;5056694;28;20593;-62
2023/10/16 07:40:37;;;;;;;5.73;2.90;;;13.30;76.60;;;;;;5053872;28;21132;-61
2023/10/16 07:43:04;;;;;;;3.23;2.43;;;13.20;76.00;;;;;;5070952;28;20516;-62
2023/10/16 07:45:33;;;;;;;3.03;2.40;;;13.10;76.20;;;;;;5060651;28;20649;-62
2023/10/16 07:48:07;;;;;;;3.53;2.23;;;13.00;76.70;;;;;;5065380;28;20479;-61
2023/10/16 07:50:38;;;;;;;3.17;2.30;;;13.00;77.60;;;;;;5064676;28;20895;-63
2023/10/16 07:53:07;;;;;;;7.33;2.73;;;13.20;78.20;;;;;;5052591;28;20483;-61
2023/10/16 07:55:40;;;;;;;3.30;2.53;;;13.60;79.30;;;;;;5068997;28;20486;-62
2023/10/16 07:58:15;;;;;;;3.13;2.47;;;14.20;79.10;;;;;;5060603;28;21155;-62
2023/10/16 08:00:59;;;;;;;6.13;3.40;;;14.80;78.50;;;;;;5060670;28;20476;-62
2023/10/16 08:03:27;;;;;;;4.57;3.03;;;15.20;77.30;;;;;;5034416;28;20465;-62
2023/10/16 08:05:54;;;;;;;5.40;2.40;;;15.30;76.70;;;;;;5062410;28;20590;-62
2023/10/16 08:08:35;;;;;;;4.93;3.07;;;15.20;76.70;;;;;;5060079;28;20553;-61
2023/10/16 08:11:12;;;;;;;3.50;2.60;;;15.20;77.60;;;;;;5061127;28;20566;-62
2023/10/16 08:13:46;;;;;;;4.27;2.90;;;15.30;77.60;;;;;;5057201;28;20557;-62
2023/10/16 08:16:17;;;;;;;3.63;2.80;;;15.10;77.70;;;;;;5054374;28;20486;-61
2023/10/16 08:18:47;;;;;;;6.13;3.67;;;15.00;77.90;;;;;;5047898;28;20976;-62
2023/10/16 08:21:23;;;;;;;7.40;3.27;;;14.90;78.90;;;;;;5049505;28;20487;-62
2023/10/16 08:23:51;;;;;;;3.57;2.83;;;14.80;80.10;;;;;;5038654;28;20965;-61
2023/10/16 08:26:28;;;;;;;6.60;3.63;;;14.80;81.10;;;;;;5041888;28;20558;-62
2023/10/16 08:28:55;;;;;;;5.83;2.90;;;14.80;80.60;;;;;;5038267;28;20467;-62
2023/10/16 08:31:24;;;;;;;7.87;4.10;;;14.70;80.30;;;;;;5048980;28;20475;-61
2023/10/16 08:33:51;;;;;;;5.57;3.47;;;14.70;81.50;;;;;;5040591;28;20483;-61
2023/10/16 08:36:21;;;;;;;15.30;3.43;;;14.60;81.50;;;;;;5044567;28;21294;-62
2023/10/16 08:38:53;;;;;;;6.10;3.20;;;14.50;81.20;;;;;;5039459;28;21007;-62
2023/10/16 08:41:30;;;;;;;4.67;3.27;;;14.40;81.60;;;;;;5039563;28;20548;-62
2023/10/16 08:44:04;;;;;;;4.20;2.90;;;14.20;81.30;;;;;;5044950;28;20507;-62
2023/10/16 08:46:34;;;;;;;6.03;3.20;;;13.90;81.50;;;;;;5067888;28;20865;-62
2023/10/16 08:49:01;;;;;;;5.03;2.50;;;13.80;81.90;;;;;;5044804;28;20470;-62
2023/10/16 08:51:29;;;;;;;6.90;2.90;;;13.70;83.70;;;;;;5039627;28;21874;-62
2023/10/16 08:54:01;;;;;;;12.50;3.20;;;13.70;83.80;;;;;;5042675;28;20475;-61
2023/10/16 08:56:28;;;;;;;8.50;3.87;;;13.80;83.60;;;;;;5032363;28;20482;-62
2023/10/16 08:58:57;;;;;;;5.67;2.80;;;13.90;84.80;;;;;;5050004;28;20565;-64
2023/10/16 09:01:27;;;;;;;4.83;2.90;;;13.90;83.40;;;;;;5048044;28;20487;-64
2023/10/16 09:04:05;;;;;;;6.10;4.40;;;13.90;84.30;;;;;;5058545;28;21054;-64
2023/10/16 09:06:36;;;;;;;2.33;1.90;;;13.90;84.50;;;;;;5046421;28;20478;-64
2023/10/16 09:09:11;;;;;;;4.70;3.17;;;13.90;84.20;;;;;;5059281;28;20536;-64
2023/10/16 09:11:39;;;;;;;3.53;2.20;;;14.00;84.10;;;;;;5056815;28;20486;-65
2023/10/16 09:14:07;;;;;;;7.23;2.83;;;14.00;84.50;;;;;;5054360;28;20483;-64
2023/10/16 09:16:34;;;;;;;4.13;2.80;;;14.00;84.10;;;;;;5055601;28;20473;-64
2023/10/16 09:19:07;;;;;;;4.97;2.60;;;14.10;84.40;;;;;;5073507;28;20607;-64
2023/10/16 09:21:38;;;;;;;6.80;3.10;;;14.10;84.60;;;;;;5067518;28;20478;-64
2023/10/16 09:24:07;;;;;;;10.00;2.70;;;14.30;84.50;;;;;;5078769;28;20493;-64
2023/10/16 09:26:38;;;;;;;6.53;2.73;;;14.50;84.70;;;;;;5060126;28;20561;-64
2023/10/16 09:29:13;;;;;;;4.00;2.60;;;14.60;84.30;;;;;;5068311;28;20893;-64
2023/10/16 09:31:43;;;;;;;2.83;2.07;;;14.80;83.40;;;;;;5062891;28;20917;-65
2023/10/16 09:34:17;;;;;;;5.23;2.60;;;14.80;83.70;;;;;;5065375;28;20567;-64
2023/10/16 09:36:48;;;;;;;4.20;2.03;;;14.70;81.20;;;;;;5071920;28;20582;-64
2023/10/16 09:39:18;;;;;;;3.77;1.67;;;14.70;81.40;;;;;;5063149;28;20529;-64
2023/10/16 09:41:47;;;;;;;3.00;1.83;;;14.80;80.50;;;;;;5052336;28;20493;-64
2023/10/16 09:44:23;;;;;;;2.60;1.70;;;14.90;81.10;;;;;;5050673;28;20478;-65
2023/10/16 09:46:54;;;;;;;4.50;1.70;;;14.80;78.30;;;;;;5039578;28;20479;-62
2023/10/16 09:49:23;;;;;;;4.03;2.47;;;14.70;77.30;;;;;;5036860;28;20536;-62
2023/10/16 09:51:52;;;;;;;5.90;1.83;;;14.70;77.90;;;;;;5032519;28;20508;-62
2023/10/16 09:54:21;;;;;;;2.43;2.23;;;14.80;78.40;;;;;;5039908;28;20757;-61
2023/10/16 09:56:52;;;;;;;8.10;1.93;;;14.80;77.50;;;;;;5040241;28;20932;-62
2023/10/16 09:59:26;;;;;;;4.57;1.70;;;14.90;78.30;;;;;;5038153;28;20476;-62
2023/10/16 10:02:08;;;;;;;2.40;1.80;;;15.00;78.20;;;;;;5052273;28;20487;-62
2023/10/16 10:04:39;;;;;;;3.30;2.10;;;15.10;76.90;;;;;;5033833;28;20479;-61
2023/10/16 10:07:13;;;;;;;1.90;1.47;;;15.20;78.00;;;;;;5042988;28;20488;-65
2023/10/16 10:09:44;;;;;;;2.67;1.37;;;15.20;77.00;;;;;;5040009;28;20488;-64
2023/10/16 10:12:23;;;;;;;2.60;1.60;;;15.30;77.80;;;;;;5039972;28;20908;-65
2023/10/16 10:15:07;;;;;;;2.63;1.30;;;15.30;76.30;;;;;;5026755;28;20474;-64
2023/10/16 10:17:35;;;;;;;2.40;1.20;;;15.30;75.50;;;;;;5048111;28;20546;-65
2023/10/16 10:20:09;;;;;;;2.00;1.50;;;15.30;75.00;;;;;;5058152;28;20474;-65
2023/10/16 10:22:37;;;;;;;3.93;1.10;;;15.30;74.60;;;;;;5045667;28;20514;-64
2023/10/16 10:25:16;;;;;;;2.17;1.10;;;15.30;73.90;;;;;;5072854;28;20475;-64
2023/10/16 10:27:44;;;;;;;5.20;2.13;;;15.40;75.70;;;;;;5053335;28;20528;-64
2023/10/16 10:30:17;;;;;;;2.00;1.63;;;15.70;76.80;;;;;;5058209;28;20494;-65
2023/10/16 10:32:57;;;;;;;6.23;1.87;;;15.70;74.40;;;;;;5055010;28;21004;-65
2023/10/16 10:35:28;;;;;;;2.80;2.00;;;15.70;74.50;;;;;;5056384;28;20462;-65
2023/10/16 10:38:17;;;;;;;2.70;2.30;;;15.80;73.70;;;;;;5057129;28;20491;-64
2023/10/16 10:41:14;;;;;;;2.73;1.57;;;15.70;74.00;;;;;;5057675;28;20479;-65
2023/10/16 10:43:46;;;;;;;7.40;1.60;;;15.80;74.70;;;;;;5052351;28;20467;-66
2023/10/16 10:46:13;;;;;;;3.60;1.50;;;15.70;70.60;;;;;;5058522;28;20483;-63
2023/10/16 10:48:42;;;;;;;2.00;1.33;;;15.70;72.30;;;;;;5049096;28;20482;-62
2023/10/16 10:51:14;;;;;;;3.20;1.43;;;15.70;72.90;;;;;;5051745;28;20859;-62
2023/10/16 10:53:54;;;;;;;3.33;1.30;;;15.70;71.40;;;;;;5054596;28;20504;-63
2023/10/16 10:56:21;;;;;;;2.83;1.23;;;15.50;70.50;;;;;;5064633;28;20556;-62
2023/10/16 10:58:49;;;;;;;2.30;1.80;;;15.70;74.00;;;;;;5053133;28;20478;-62
2023/10/16 11:01:26;;;;;;;5.37;1.80;;;15.50;71.40;;;;;;5058142;28;20506;-62
2023/10/16 11:03:55;;;;;;;1.93;1.20;;;15.60;73.50;;;;;;5057345;28;20481;-62
2023/10/16 11:06:34;;;;;;;2.63;1.43;;;15.70;71.90;;;;;;5057871;28;20495;-62
2023/10/16 11:09:11;;;;;;;2.83;1.80;;;15.80;72.40;;;;;;5050045;28;20533;-63
2023/10/16 11:11:40;;;;;;;2.20;1.30;;;15.90;70.70;;;;;;5056042;28;20509;-62
2023/10/16 11:14:08;;;;;;;1.60;0.73;;;15.80;71.30;;;;;;5055560;28;20510;-62
2023/10/16 11:16:42;;;;;;;2.77;1.47;;;15.10;67.80;;;;;;5056580;28;20571;-64
2023/10/16 11:19:09;;;;;;;4.03;1.97;;;15.20;70.40;;;;;;5058596;28;20581;-65
2023/10/16 11:21:44;;;;;;;5.20;1.00;;;15.40;73.80;;;;;;5053029;28;20572;-65
2023/10/16 11:24:13;;;;;;;1.80;1.00;;;15.60;73.00;;;;;;5058425;28;20528;-66
2023/10/16 11:26:40;;;;;;;2.10;1.40;;;15.80;73.70;;;;;;5062435;28;20476;-65
2023/10/16 11:29:11;;;;;;;1.60;0.80;;;16.00;72.30;;;;;;5055957;28;21098;-66
2023/10/16 11:31:41;;;;;;;3.40;1.00;;;16.20;70.40;;;;;;5055300;28;20474;-65
2023/10/16 11:34:13;;;;;;;2.13;0.90;;;16.40;70.40;;;;;;5058198;28;20483;-65
2023/10/16 11:36:42;;;;;;;2.20;1.37;;;16.50;71.80;;;;;;5057438;28;20483;-65
2023/10/16 11:39:10;;;;;;;1.70;1.00;;;16.60;70.50;;;;;;5058234;28;20501;-66
2023/10/16 11:41:37;;;;;;;3.00;1.73;;;16.60;68.20;;;;;;5056781;28;20479;-65
2023/10/16 11:44:13;;;;;;;1.60;0.80;;;16.60;67.80;;;;;;5058143;28;20558;-65
2023/10/16 11:46:46;;;;;;;2.97;1.50;;;16.20;65.40;;;;;;5054846;28;20490;-65
2023/10/16 11:49:29;;;;;;;2.47;0.90;;;16.40;69.60;;;;;;5058532;28;20486;-65
2023/10/16 11:52:08;;;;;;;1.70;0.90;;;16.50;68.90;;;;;;5046316;28;20481;-65
2023/10/16 11:54:36;;;;;;;1.90;0.87;;;16.70;68.30;;;;;;5041434;28;20494;-66
2023/10/16 11:57:04;;;;;;;1.70;0.90;;;16.80;66.80;;;;;;5048768;28;20910;-65
2023/10/16 11:59:32;;;;;;;2.07;1.20;;;16.80;64.90;;;;;;5048667;28;20478;-64
2023/10/16 12:02:01;;;;;;;1.70;0.70;;;16.80;66.40;;;;;;5056647;28;20556;-65
2023/10/16 12:04:29;;;;;;;2.00;0.83;;;16.90;65.70;;;;;;5055880;28;20475;-65
2023/10/16 12:06:58;;;;;;;4.40;1.50;;;16.70;66.50;;;;;;5050954;28;21073;-65
2023/10/16 12:09:27;;;;;;;2.77;1.30;;;16.80;66.60;;;;;;5049050;28;21042;-69
2023/10/16 12:11:54;;;;;;;3.70;1.30;;;16.80;66.40;;;;;;5051933;28;20540;-66
2023/10/16 12:14:23;;;;;;;2.80;1.50;;;16.80;65.60;;;;;;5051743;28;20498;-65
2023/10/16 12:16:50;;;;;;;2.10;1.13;;;16.80;65.60;;;;;;5039060;28;21034;-65
2023/10/16 12:19:19;;;;;;;1.63;0.90;;;16.90;66.30;;;;;;5048564;28;20557;-65
2023/10/16 12:21:50;;;;;;;3.87;1.30;;;16.90;65.10;;;;;;5061889;28;20499;-66
2023/10/16 12:24:18;;;;;;;4.63;1.33;;;16.90;64.70;;;;;;5042344;28;20475;-66
2023/10/16 12:26:45;;;;;;;2.30;1.00;;;17.00;64.80;;;;;;4978596;28;20515;-65
2023/10/16 12:29:12;;;;;;;1.70;1.00;;;16.90;64.80;;;;;;5041687;28;20493;-66
2023/10/16 12:31:40;;;;;;;4.40;0.90;;;17.00;65.10;;;;;;5056469;28;20566;-66
2023/10/16 12:34:10;;;;;;;1.93;1.10;;;17.10;64.80;;;;;;5050942;28;20992;-65
2023/10/16 12:36:37;;;;;;;3.07;0.90;;;17.10;64.30;;;;;;5042741;28;20969;-66
2023/10/16 12:39:13;;;;;;;2.00;1.20;;;17.20;64.90;;;;;;5053791;28;20575;-66
2023/10/16 12:41:42;;;;;;;2.90;1.63;;;17.10;63.60;;;;;;5050597;28;20493;-67
2023/10/16 12:44:09;;;;;;;1.60;0.80;;;17.20;63.70;;;;;;5023277;28;20573;-66
2023/10/16 12:46:36;;;;;;;2.90;1.63;;;17.20;64.20;;;;;;5061359;28;20499;-67
2023/10/16 12:49:06;;;;;;;1.77;1.03;;;17.30;64.10;;;;;;5048918;28;20471;-67
2023/10/16 12:51:34;;;;;;;2.90;1.20;;;17.20;63.60;;;;;;5055508;28;20504;-65
2023/10/16 12:54:03;;;;;;;2.23;1.33;;;17.30;64.30;;;;;;5055604;28;20944;-65
2023/10/16 12:56:31;;;;;;;1.70;0.90;;;17.30;62.50;;;;;;5055956;28;21893;-66
2023/10/16 12:58:59;;;;;;;3.13;1.23;;;17.40;61.60;;;;;;5050038;28;20483;-67
2023/10/16 13:01:26;;;;;;;2.10;0.83;;;17.40;61.30;;;;;;5051030;28;20570;-67
2023/10/16 13:03:59;;;;;;;2.10;0.90;;;17.40;62.00;;;;;;5049595;28;20576;-67
2023/10/16 13:06:26;;;;;;;3.23;0.97;;;17.40;61.60;;;;;;5049990;28;20490;-66
2023/10/16 13:08:53;;;;;;;2.70;1.23;;;17.30;60.10;;;;;;5053954;28;20569;-65
2023/10/16 13:11:20;;;;;;;1.67;0.90;;;17.20;61.30;;;;;;5050787;28;20493;-68
2023/10/16 13:13:46;;;;;;;2.20;1.40;;;17.30;62.00;;;;;;5055888;28;20475;-67
2023/10/16 13:16:24;;;;;;;3.13;0.90;;;17.30;60.30;;;;;;5048615;28;20593;-65
2023/10/16 13:18:57;;;;;;;1.80;1.20;;;17.30;60.70;;;;;;5055387;28;21210;-62
2023/10/16 13:21:32;;;;;;;2.17;0.83;;;17.30;59.30;;;;;;5035863;28;20480;-62
2023/10/16 13:24:00;;;;;;;1.80;0.80;;;17.30;59.80;;;;;;5033134;28;20475;-62
2023/10/16 13:26:31;;;;;;;1.87;1.00;;;17.40;59.10;;;;;;5034821;28;20594;-62
2023/10/16 13:28:58;;;;;;;2.40;1.00;;;17.40;59.00;;;;;;5035989;28;20489;-63
2023/10/16 13:31:26;;;;;;;1.90;1.20;;;17.50;59.60;;;;;;5028300;28;20510;-62
2023/10/16 13:33:53;;;;;;;2.00;1.80;;;17.40;58.70;;;;;;5061154;28;20464;-62
2023/10/16 13:36:20;;;;;;;5.33;1.93;;;17.40;58.40;;;;;;5035922;28;20484;-61
2023/10/16 13:38:48;;;;;;;2.00;0.83;;;17.50;59.20;;;;;;5051909;28;20561;-66
2023/10/16 13:41:18;;;;;;;2.07;0.97;;;17.30;60.00;;;;;;5039185;28;21060;-66
2023/10/16 13:43:46;;;;;;;2.43;1.43;;;17.60;59.40;;;;;;5035226;28;20476;-66
2023/10/16 13:46:13;;;;;;;3.10;1.00;;;17.80;60.00;;;;;;5038396;28;20500;-66
2023/10/16 13:48:45;;;;;;;2.00;1.33;;;17.90;59.40;;;;;;5029670;28;21061;-65
2023/10/16 13:51:16;;;;;;;2.30;1.30;;;18.10;59.50;;;;;;5035606;28;20487;-67
2023/10/16 13:53:43;;;;;;;1.70;0.87;;;17.70;57.40;;;;;;5032013;28;20985;-67
2023/10/16 13:56:10;;;;;;;1.70;0.80;;;17.40;57.70;;;;;;5028339;28;20493;-66
2023/10/16 13:58:38;;;;;;;3.47;1.73;;;17.50;60.40;;;;;;5054327;28;20523;-66
2023/10/16 14:01:05;;;;;;;1.90;1.20;;;17.70;61.70;;;;;;5036954;28;20480;-67
2023/10/16 14:03:33;;;;;;;3.63;2.10;;;17.90;61.30;;;;;;5037726;28;21024;-67
2023/10/16 14:06:12;;;;;;;1.60;0.90;;;17.90;61.00;;;;;;5035965;28;20472;-66
2023/10/16 14:08:41;;;;;;;1.87;0.90;;;18.00;60.40;;;;;;5058078;28;20491;-66
2023/10/16 14:11:11;;;;;;;4.53;1.50;;;18.20;60.30;;;;;;5022517;28;20900;-66
2023/10/16 14:13:40;;;;;;;2.00;0.90;;;18.20;61.10;;;;;;5040278;28;20673;-65
2023/10/16 14:16:09;;;;;;;1.83;1.00;;;18.30;61.10;;;;;;5038823;28;20499;-66
2023/10/16 14:18:38;;;;;;;1.80;0.80;;;18.20;58.60;;;;;;5036639;28;20511;-65
2023/10/16 14:21:10;;;;;;;2.33;1.10;;;18.00;58.50;;;;;;5047945;28;20492;-66